Grand Luxe — WDD6093 — position and weather

sailwx.info

Track history (hours):
 
Tides and Currents Weather Stations Pressure Air Temp Water Temp Dewpoint Dewpoint Depression Visibility Wind Speed Wind Dir Waves Ship Positions

Grand Luxe

Owner: Expoships , LLLP, Bonita Springs, FL. More information available from US FCC via Universal Licensing System and Coast Guard Vessel Documentation Center.

Last reported at 2017-Dec-10 03:45 UTC. Time now 2017-Dec-11 19:19 UTC.
Position N 25°46' W 080°11'.

; draft 2.2 m.

MMSI: 367168190.

Date/timePositionNaut miles runAvg speedWind from/ knotsBaromVisibWave heightAir tempDewpointWater temp
2017-Dec-10 03:45N 25°46' W 080°11'0 0.7
2017-Dec-10 03:31N 25°47' W 080°11'2 4.7
2017-Dec-10 03:00N 25°44' W 080°11'2 4.1
2017-Dec-10 02:31N 25°42' W 080°12'1 2.0
2017-Dec-10 02:01N 25°41' W 080°12'2 4.8
2017-Dec-10 01:30N 25°44' W 080°11'2 4.6
2017-Dec-10 01:01N 25°46' W 080°11'0 0.7
2017-Dec-10 00:31N 25°46' W 080°11'0 0.0
2017-Dec-10 00:00N 25°46' W 080°11'0 0.0
2017-Dec-09 23:30N 25°46' W 080°11'0 0.0
2017-Dec-09 23:01N 25°46' W 080°11'0 0.0
2017-Dec-09 22:30N 25°46' W 080°11'0 0.0
2017-Dec-09 22:00N 25°46' W 080°11'0 0.0
2017-Dec-09 21:31N 25°46' W 080°11'0 0.0
2017-Dec-09 21:01N 25°46' W 080°11'0 0.0
2017-Dec-09 20:30N 25°46' W 080°11'0 0.0
2017-Dec-09 20:00N 25°46' W 080°11'0 0.0
2017-Dec-09 19:31N 25°46' W 080°11'0 0.0
2017-Dec-09 19:00N 25°46' W 080°11'0 0.0
2017-Dec-09 18:31N 25°46' W 080°11'0 0.0
2017-Dec-09 18:00N 25°46' W 080°11'0 0.0
2017-Dec-09 17:30N 25°46' W 080°11'0 0.0
2017-Dec-09 17:00N 25°46' W 080°11'0 0.0
2017-Dec-09 16:31N 25°46' W 080°11'0 0.0
2017-Dec-09 16:01N 25°46' W 080°11'  
2017-Dec-07 02:26N 25°46' W 080°11'1 1.5
2017-Dec-07 02:00N 25°46' W 080°11'2 3.6
2017-Dec-07 01:31N 25°44' W 080°11'1 2.0
2017-Dec-07 01:00N 25°43' W 080°11'2 4.2
2017-Dec-07 00:30N 25°41' W 080°12'1 1.8
2017-Dec-07 00:00N 25°42' W 080°12'2 4.1
2017-Dec-06 23:30N 25°44' W 080°11'1 1.7
2017-Dec-06 23:00N 25°45' W 080°11'2 3.4
2017-Dec-06 22:30N 25°46' W 080°11'0 0.0
2017-Dec-06 22:00N 25°46' W 080°11'0 0.0
2017-Dec-06 21:30N 25°46' W 080°11'  
2017-Dec-02 04:20N 25°46' W 080°11'0 0.4
2017-Dec-02 04:01N 25°46' W 080°11'2 4.4
2017-Dec-02 03:28N 25°44' W 080°11'2 3.7
2017-Dec-02 03:00N 25°42' W 080°11'0 0.4
2017-Dec-02 02:30N 25°43' W 080°11'2 4.3
2017-Dec-02 02:00N 25°45' W 080°11'2 3.2
2017-Dec-02 01:30N 25°46' W 080°11'0 0.0
2017-Dec-02 01:00N 25°46' W 080°11'0 0.0
2017-Dec-02 00:30N 25°46' W 080°11'0 0.0
2017-Dec-02 00:00N 25°46' W 080°11'0 0.0
2017-Dec-01 23:30N 25°46' W 080°11'0 0.0
2017-Dec-01 23:00N 25°46' W 080°11'0 0.0
2017-Dec-01 22:27N 25°46' W 080°11'0 0.0
2017-Dec-01 22:00N 25°46' W 080°11'0 0.0
2017-Dec-01 21:30N 25°46' W 080°11'0 0.0
2017-Dec-01 21:00N 25°46' W 080°11'0 0.0
2017-Dec-01 00:08N 25°46' W 080°11'0 0.1
2017-Dec-01 00:00N 25°46' W 080°11'1 2.7
2017-Nov-30 23:30N 25°45' W 080°11'1 1.3
2017-Nov-30 23:00N 25°46' W 080°11'1 1.4
2017-Nov-30 22:30N 25°46' W 080°11'0 0.0
2017-Nov-30 22:00N 25°46' W 080°11'0 0.0
2017-Nov-30 21:30N 25°46' W 080°11'0 0.0
2017-Nov-30 21:00N 25°46' W 080°11'0 0.0
2017-Nov-30 20:30N 25°46' W 080°11'  
Track history (hours):
 
Tides and Currents Weather Stations Pressure Air Temp Water Temp Dewpoint Dewpoint Depression Visibility Wind Speed Wind Dir Waves Ship Positions

Grand Luxe

Owner: Expoships , LLLP, Bonita Springs, FL. More information available from US FCC via Universal Licensing System and Coast Guard Vessel Documentation Center.

Last reported at 2017-Dec-10 03:45 UTC. Time now 2017-Dec-11 19:19 UTC.
Position N 25°46' W 080°11'.

; draft 2.2 m.

MMSI: 367168190.

Date/timePositionNaut miles runAvg speedWind from/ knotsBaromVisibWave heightAir tempDewpointWater temp
2017-Dec-10 03:45N 25°46' W 080°11'0 0.7
2017-Dec-10 03:31N 25°47' W 080°11'2 4.7
2017-Dec-10 03:00N 25°44' W 080°11'2 4.1
2017-Dec-10 02:31N 25°42' W 080°12'1 2.0
2017-Dec-10 02:01N 25°41' W 080°12'2 4.8
2017-Dec-10 01:30N 25°44' W 080°11'2 4.6
2017-Dec-10 01:01N 25°46' W 080°11'0 0.7
2017-Dec-10 00:31N 25°46' W 080°11'0 0.0
2017-Dec-10 00:00N 25°46' W 080°11'0 0.0
2017-Dec-09 23:30N 25°46' W 080°11'0 0.0
2017-Dec-09 23:01N 25°46' W 080°11'0 0.0
2017-Dec-09 22:30N 25°46' W 080°11'0 0.0
2017-Dec-09 22:00N 25°46' W 080°11'0 0.0
2017-Dec-09 21:31N 25°46' W 080°11'0 0.0
2017-Dec-09 21:01N 25°46' W 080°11'0 0.0
2017-Dec-09 20:30N 25°46' W 080°11'0 0.0
2017-Dec-09 20:00N 25°46' W 080°11'0 0.0
2017-Dec-09 19:31N 25°46' W 080°11'0 0.0
2017-Dec-09 19:00N 25°46' W 080°11'0 0.0
2017-Dec-09 18:31N 25°46' W 080°11'0 0.0
2017-Dec-09 18:00N 25°46' W 080°11'0 0.0
2017-Dec-09 17:30N 25°46' W 080°11'0 0.0
2017-Dec-09 17:00N 25°46' W 080°11'0 0.0
2017-Dec-09 16:31N 25°46' W 080°11'0 0.0
2017-Dec-09 16:01N 25°46' W 080°11'  
2017-Dec-07 02:26N 25°46' W 080°11'1 1.5
2017-Dec-07 02:00N 25°46' W 080°11'2 3.6
2017-Dec-07 01:31N 25°44' W 080°11'1 2.0
2017-Dec-07 01:00N 25°43' W 080°11'2 4.2
2017-Dec-07 00:30N 25°41' W 080°12'1 1.8
2017-Dec-07 00:00N 25°42' W 080°12'2 4.1
2017-Dec-06 23:30N 25°44' W 080°11'1 1.7
2017-Dec-06 23:00N 25°45' W 080°11'2 3.4
2017-Dec-06 22:30N 25°46' W 080°11'0 0.0
2017-Dec-06 22:00N 25°46' W 080°11'0 0.0
2017-Dec-06 21:30N 25°46' W 080°11'  
2017-Dec-02 04:20N 25°46' W 080°11'0 0.4
2017-Dec-02 04:01N 25°46' W 080°11'2 4.4
2017-Dec-02 03:28N 25°44' W 080°11'2 3.7
2017-Dec-02 03:00N 25°42' W 080°11'0 0.4
2017-Dec-02 02:30N 25°43' W 080°11'2 4.3
2017-Dec-02 02:00N 25°45' W 080°11'2 3.2
2017-Dec-02 01:30N 25°46' W 080°11'0 0.0
2017-Dec-02 01:00N 25°46' W 080°11'0 0.0
2017-Dec-02 00:30N 25°46' W 080°11'0 0.0
2017-Dec-02 00:00N 25°46' W 080°11'0 0.0
2017-Dec-01 23:30N 25°46' W 080°11'0 0.0
2017-Dec-01 23:00N 25°46' W 080°11'0 0.0
2017-Dec-01 22:27N 25°46' W 080°11'0 0.0
2017-Dec-01 22:00N 25°46' W 080°11'0 0.0
2017-Dec-01 21:30N 25°46' W 080°11'0 0.0
2017-Dec-01 21:00N 25°46' W 080°11'0 0.0
2017-Dec-01 00:08N 25°46' W 080°11'0 0.1
2017-Dec-01 00:00N 25°46' W 080°11'1 2.7
2017-Nov-30 23:30N 25°45' W 080°11'1 1.3
2017-Nov-30 23:00N 25°46' W 080°11'1 1.4
2017-Nov-30 22:30N 25°46' W 080°11'0 0.0
2017-Nov-30 22:00N 25°46' W 080°11'0 0.0
2017-Nov-30 21:30N 25°46' W 080°11'0 0.0
2017-Nov-30 21:00N 25°46' W 080°11'0 0.0
2017-Nov-30 20:30N 25°46' W 080°11'  

Dump ship's entire track history